Time;durP1;ratioP1;P1;durP2;ratioP2;P2;SDS_P1;SDS_P2;PMS_P1;PMS_P2;Temp;Humidity;BMP_temperature;BMP_pressure;BME280_temperature;BME280_humidity;BME280_pressure;Samples;Min_cycle;Max_cycle;Signal;HPM_P1;HPM_P2
2023/10/10 00:01:07;;;;;;;2.60;2.20;;;;;;;17.96;45.07;98267.14;105219;1260;72672;-42
2023/10/10 00:03:40;;;;;;;2.90;2.20;;;;;;;17.95;45.10;98269.59;105286;1262;61267;-41
2023/10/10 00:06:08;;;;;;;2.40;2.10;;;;;;;17.95;45.12;98270.73;105212;1261;61277;-42
2023/10/10 00:08:40;;;;;;;3.00;1.90;;;;;;;17.94;45.07;98271.58;105190;1264;74584;-41
2023/10/10 00:11:18;;;;;;;2.20;1.90;;;;;;;17.94;45.07;98274.84;105238;1264;65896;-41
2023/10/10 00:13:52;;;;;;;2.60;2.20;;;;;;;17.94;45.13;98278.79;105243;1260;72583;-42
2023/10/10 00:16:31;;;;;;;4.50;2.30;;;;;;;17.94;45.12;98276.37;105168;1264;61338;-42
2023/10/10 00:19:08;;;;;;;3.30;2.30;;;;;;;17.94;45.13;98277.45;105160;1260;61369;-42
2023/10/10 00:21:35;;;;;;;2.20;2.00;;;;;;;17.94;45.20;98280.93;105095;1260;74399;-41
2023/10/10 00:24:03;;;;;;;2.70;2.20;;;;;;;17.93;45.13;98281.38;105204;1263;65861;-42
2023/10/10 00:26:34;;;;;;;2.30;2.10;;;;;;;17.93;45.11;98280.61;105242;1260;72519;-41
2023/10/10 00:29:06;;;;;;;3.00;2.10;;;;;;;17.93;45.13;98276.96;105250;1259;61276;-41
2023/10/10 00:31:33;;;;;;;2.90;2.20;;;;;;;17.93;45.13;98277.73;105282;1260;61346;-41
2023/10/10 00:34:01;;;;;;;3.00;1.90;;;;;;;17.93;45.19;98276.95;105178;1263;74594;-42
2023/10/10 00:36:33;;;;;;;2.20;2.00;;;;;;;17.92;45.13;98275.09;105111;1261;66283;-42
2023/10/10 00:41:51;;;;;;;3.50;2.30;;;;;;;17.92;45.11;98278.30;105224;1265;61266;-41
2023/10/10 00:44:19;;;;;;;2.80;2.20;;;;;;;17.91;45.11;98283.94;105215;1260;61368;-41
2023/10/10 00:46:54;;;;;;;2.40;2.20;;;;;;;17.91;45.14;98284.56;105159;1260;74527;-43
2023/10/10 00:49:26;;;;;;;3.10;2.30;;;;;;;17.92;45.11;98291.16;105114;1263;64787;-43
2023/10/10 00:51:54;;;;;;;2.60;2.00;;;;;;;17.92;45.11;98286.81;105013;1259;72706;-43
2023/10/10 00:56:55;;;;;;;2.90;2.40;;;;;;;17.91;45.13;98283.14;105234;1259;61388;-42
2023/10/10 00:59:34;;;;;;;2.20;2.00;;;;;;;17.91;45.14;98279.04;105256;1263;74372;-42
2023/10/10 01:02:05;;;;;;;2.80;2.10;;;;;;;17.90;45.11;98276.46;105099;1263;65321;-41
2023/10/10 01:04:39;;;;;;;2.20;2.00;;;;;;;17.90;45.19;98277.92;105083;1259;72763;-41
2023/10/10 01:07:09;;;;;;;3.50;2.00;;;;;;;17.90;45.09;98281.88;105162;1263;61487;-42
2023/10/10 01:09:55;;;;;;;3.50;2.00;;;;;;;17.90;45.14;98285.21;105223;1259;61720;-42
2023/10/10 01:12:28;;;;;;;3.60;2.10;;;;;;;17.89;45.15;98286.35;105234;1264;74840;-41
2023/10/10 01:14:57;;;;;;;2.90;2.20;;;;;;;17.89;45.14;98285.55;105246;1260;66269;-41
2023/10/10 01:17:32;;;;;;;3.00;2.50;;;;;;;17.89;45.15;98286.79;105236;1261;72730;-41
2023/10/10 01:20:09;;;;;;;2.60;2.00;;;;;;;17.88;45.11;98281.73;105246;1264;61272;-42
2023/10/10 01:22:39;;;;;;;1.90;1.70;;;;;;;17.88;45.10;98278.48;105070;1259;61284;-42
2023/10/10 01:27:58;;;;;;;3.90;2.00;;;;;;;17.88;45.09;98281.70;105668;1260;66093;-43
2023/10/10 01:30:44;;;;;;;3.10;2.20;;;;;;;17.87;45.14;98281.45;105227;1260;72640;-43
2023/10/10 01:33:14;;;;;;;2.50;2.20;;;;;;;17.87;45.12;98283.94;105244;1264;61270;-42
2023/10/10 01:35:43;;;;;;;3.00;2.20;;;;;;;17.87;45.12;98284.98;105221;1260;61443;-42
2023/10/10 01:38:38;;;;;;;2.70;2.10;;;;;;;17.86;45.08;98288.64;105276;1264;73878;-41
2023/10/10 01:41:15;;;;;;;2.60;1.90;;;;;;;17.86;45.11;98288.54;105152;1264;65355;-42
2023/10/10 01:43:46;;;;;;;2.60;2.00;;;;;;;17.85;45.11;98286.73;105234;1260;72352;-42
2023/10/10 01:46:28;;;;;;;3.30;2.20;;;;;;;17.85;45.16;98292.45;105151;1262;61260;-42
2023/10/10 01:49:01;;;;;;;2.70;2.30;;;;;;;17.85;45.10;98295.63;105263;1259;61235;-42
2023/10/10 01:51:33;;;;;;;2.50;2.10;;;;;;;17.85;45.16;98300.13;105253;1261;73737;-42
2023/10/10 01:54:11;;;;;;;2.90;2.10;;;;;;;17.85;45.12;98304.53;105262;1264;65106;-42
2023/10/10 01:56:42;;;;;;;2.00;1.80;;;;;;;17.85;45.17;98309.09;105101;1259;72620;-42
2023/10/10 01:59:13;;;;;;;2.30;2.00;;;;;;;17.84;45.11;98312.95;104973;1261;61353;-42
2023/10/10 02:01:44;;;;;;;2.60;2.10;;;;;;;17.85;45.10;98315.80;105069;1260;61435;-42
2023/10/10 02:04:11;;;;;;;2.50;2.20;;;;;;;17.85;45.21;98320.69;104971;1265;74638;-42
2023/10/10 02:06:45;;;;;;;2.80;2.30;;;;;;;17.84;45.16;98318.65;105003;1264;66176;-42
2023/10/10 02:09:27;;;;;;;2.80;1.90;;;;;;;17.84;45.20;98316.86;105195;1263;71125;-42
2023/10/10 02:11:55;;;;;;;2.60;1.90;;;;;;;17.83;45.19;98313.21;105051;1264;61293;-42
2023/10/10 02:14:25;;;;;;;2.40;2.00;;;;;;;17.83;45.13;98311.27;105049;1263;61401;-42
2023/10/10 02:16:54;;;;;;;3.20;1.90;;;;;;;17.83;45.13;98312.04;105081;1261;74664;-42
2023/10/10 02:19:32;;;;;;;2.10;1.90;;;;;;;17.82;45.17;98312.92;105041;1260;65973;-42
2023/10/10 02:22:19;;;;;;;2.50;2.00;;;;;;;17.82;45.25;98311.23;105003;1259;70323;-42
2023/10/10 02:24:49;;;;;;;2.50;1.80;;;;;;;17.82;45.17;98311.23;105102;1263;61258;-42
2023/10/10 02:27:28;;;;;;;5.20;2.20;;;;;;;17.82;45.16;98312.77;105031;1259;61343;-43
2023/10/10 02:30:03;;;;;;;2.30;2.00;;;;;;;17.82;45.17;98319.05;105090;1264;74311;-43
2023/10/10 02:32:33;;;;;;;2.90;2.40;;;;;;;17.82;45.06;98319.80;105019;1260;66397;-44
2023/10/10 02:35:14;;;;;;;2.00;1.80;;;;;;;17.81;45.10;98322.27;105266;1260;72421;-42
2023/10/10 02:37:44;;;;;;;2.30;1.90;;;;;;;17.81;45.13;98320.16;105228;1263;61385;-42
2023/10/10 02:40:15;;;;;;;2.80;2.30;;;;;;;17.82;45.14;98329.25;105287;1260;61345;-42
2023/10/10 02:45:35;;;;;;;1.90;1.70;;;;;;;17.80;45.09;98334.52;104980;1263;65522;-43
2023/10/10 02:48:07;;;;;;;1.90;1.80;;;;;;;17.80;45.15;98335.92;105270;1260;71487;-42
2023/10/10 02:50:41;;;;;;;2.30;1.80;;;;;;;17.80;45.16;98340.16;105204;1263;61351;-42
2023/10/10 02:53:09;;;;;;;2.60;1.90;;;;;;;17.80;45.22;98340.16;105208;1260;61284;-42
2023/10/10 02:55:41;;;;;;;2.50;1.80;;;;;;;17.79;45.19;98336.65;105179;1263;74680;-42
2023/10/10 02:58:20;;;;;;;2.30;2.00;;;;;;;17.79;45.17;98335.48;105189;1263;65716;-42
2023/10/10 03:00:51;;;;;;;2.50;1.70;;;;;;;17.79;45.16;98330.98;105155;1261;72450;-42
2023/10/10 03:03:19;;;;;;;2.80;1.90;;;;;;;17.78;45.17;98326.95;105173;1263;61261;-42
2023/10/10 03:05:50;;;;;;;2.10;1.70;;;;;;;17.78;45.15;98328.05;105214;1260;61227;-42
2023/10/10 03:08:34;;;;;;;2.70;2.20;;;;;;;17.78;45.08;98327.95;105113;1262;74611;-42
2023/10/10 03:11:02;;;;;;;4.80;2.10;;;;;;;17.77;45.16;98324.91;105000;1265;64199;-42
2023/10/10 03:13:36;;;;;;;3.80;2.10;;;;;;;17.78;45.14;98328.87;104988;1260;73135;-42
2023/10/10 03:19:13;;;;;;;2.80;2.00;;;;;;;17.77;45.16;98335.11;105069;1260;61263;-42
2023/10/10 03:21:50;;;;;;;1.90;1.70;;;;;;;17.76;45.15;98335.41;105079;1261;74628;-42
2023/10/10 03:27:01;;;;;;;2.20;1.90;;;;;;;17.76;45.14;98336.00;105178;1261;72628;-41
2023/10/10 03:29:49;;;;;;;2.60;2.10;;;;;;;17.75;45.15;98339.01;105210;1260;61287;-41
2023/10/10 03:32:31;;;;;;;2.50;2.00;;;;;;;17.74;45.19;98338.83;105181;1260;61312;-41
2023/10/10 03:35:13;;;;;;;2.20;2.00;;;;;;;17.74;45.16;98337.73;105116;1264;74614;-42
2023/10/10 03:37:43;;;;;;;2.30;1.80;;;;;;;17.74;45.18;98341.37;105267;1263;66155;-41
2023/10/10 05:25:55;;;;;;;3.90;2.10;;;;;;;17.65;45.35;98445.31;105069;1260;74667;-42
2023/10/10 05:28:23;;;;;;;2.40;2.00;;;;;;;17.65;45.32;98451.98;105136;1264;65964;-43
2023/10/10 05:30:55;;;;;;;5.00;2.20;;;;;;;17.65;45.28;98453.59;104918;1260;72495;-41
2023/10/10 05:33:26;;;;;;;2.90;2.00;;;;;;;17.64;45.40;98455.50;104941;1259;61426;-55
2023/10/10 05:35:57;;;;;;;4.50;2.30;;;;;;;17.65;45.68;98452.73;104801;1259;61267;-52
2023/10/10 05:38:25;;;;;;;4.50;2.40;;;;;;;17.67;46.04;98457.70;104988;1259;74728;-51
2023/10/10 05:40:53;;;;;;;3.90;2.50;;;;;;;17.72;46.43;98464.49;104990;1259;63293;-50
2023/10/10 05:43:33;;;;;;;4.60;2.10;;;;;;;17.78;46.85;98467.06;105280;1260;71406;-44
2023/10/10 05:46:04;;;;;;;5.80;2.40;;;;;;;17.85;46.94;98470.41;104974;1263;61267;-45
2023/10/10 05:48:35;;;;;;;3.30;2.30;;;;;;;17.89;46.99;98474.28;105031;1264;61317;-40
2023/10/10 05:51:04;;;;;;;2.70;2.50;;;;;;;17.89;47.01;98476.96;105110;1264;75305;-43
2023/10/10 05:53:34;;;;;;;3.00;2.40;;;;;;;17.90;47.00;98478.29;104791;1264;66089;-43
2023/10/10 05:56:24;;;;;;;3.10;2.60;;;;;;;17.89;47.00;98478.59;105084;1260;72436;-44
2023/10/10 05:58:50;;;;;;;2.60;2.10;;;;;;;17.89;46.92;98477.08;104813;1267;61284;-42
2023/10/10 06:01:20;;;;;;;4.10;2.60;;;;;;;17.89;46.86;98480.11;105074;1259;61408;-40
2023/10/10 06:03:48;;;;;;;3.20;2.40;;;;;;;17.88;46.81;98480.84;104854;1262;74687;-43
2023/10/10 06:06:18;;;;;;;3.70;2.70;;;;;;;17.88;46.63;98488.80;104929;1267;67087;-41
2023/10/10 06:08:56;;;;;;;3.80;2.30;;;;;;;17.88;46.66;98496.16;105022;1259;73564;-42
2023/10/10 06:11:26;;;;;;;3.60;2.90;;;;;;;17.88;46.64;98501.95;105062;1264;61297;-41
2023/10/10 06:13:53;;;;;;;3.30;2.50;;;;;;;17.88;46.60;98501.95;105989;1260;61260;-41
2023/10/10 06:16:23;;;;;;;3.30;2.40;;;;;;;17.88;46.51;98502.52;104987;1261;74834;-43
2023/10/10 06:18:51;;;;;;;3.60;2.50;;;;;;;17.88;46.50;98509.09;104986;1265;64920;-40
2023/10/10 06:21:19;;;;;;;4.50;2.50;;;;;;;17.88;46.49;98513.36;105050;1259;72661;-40
2023/10/10 06:23:48;;;;;;;4.70;2.80;;;;;;;17.89;46.55;98512.08;105136;1263;61368;-41
2023/10/10 06:26:18;;;;;;;3.70;2.70;;;;;;;17.89;46.46;98512.41;104652;1261;61347;-41
2023/10/10 06:28:53;;;;;;;5.10;2.80;;;;;;;17.90;46.47;98516.69;105701;1261;74638;-41
2023/10/10 06:31:33;;;;;;;3.80;2.90;;;;;;;17.91;46.46;98520.27;106734;1259;68464;-40
2023/10/10 06:34:19;;;;;;;3.30;2.80;;;;;;;17.90;46.38;98516.63;104995;1265;72557;-42
2023/10/10 06:36:49;;;;;;;5.80;3.00;;;;;;;17.92;46.38;98521.04;104770;1262;61266;-39
2023/10/10 06:41:50;;;;;;;3.00;2.60;;;;;;;17.93;46.29;98518.91;104766;1259;74736;-41
2023/10/10 06:44:39;;;;;;;4.30;2.60;;;;;;;17.94;46.24;98522.67;104773;1263;65063;-41
2023/10/10 06:47:11;;;;;;;3.80;2.60;;;;;;;17.94;46.28;98516.00;104741;1262;73821;-43
2023/10/10 06:50:00;;;;;;;3.50;2.80;;;;;;;17.94;46.15;98519.43;104875;1262;62134;-42
2023/10/10 06:52:30;;;;;;;4.00;2.70;;;;;;;17.95;46.18;98520.06;108779;1260;60097;-43
2023/10/10 06:54:57;;;;;;;5.00;2.30;;;;;;;17.96;46.27;98514.61;108794;1261;75403;-43
2023/10/10 06:57:38;;;;;;;3.80;2.80;;;;;;;17.96;46.21;98514.92;104842;1259;66171;-45
2023/10/10 07:00:21;;;;;;;3.90;2.70;;;;;;;17.96;46.23;98516.27;108853;1259;72591;-46
2023/10/10 07:02:52;;;;;;;5.00;2.50;;;;;;;17.98;46.23;98516.23;108448;1259;62112;-41
2023/10/10 07:05:20;;;;;;;5.80;2.60;;;;;;;17.99;46.13;98513.51;105012;1259;62099;-41
2023/10/10 07:07:52;;;;;;;5.20;2.90;;;;;;;18.02;46.17;98517.30;107831;1259;75455;-42
2023/10/10 07:10:26;;;;;;;6.70;3.30;;;;;;;18.08;46.66;98518.39;108884;1259;66247;-43
2023/10/10 07:12:54;;;;;;;4.70;2.60;;;;;;;18.16;47.02;98521.48;108819;1260;72662;-43
2023/10/10 07:15:21;;;;;;;6.60;3.10;;;;;;;18.22;47.08;98522.27;105770;1259;62181;-42
2023/10/10 07:17:49;;;;;;;4.50;2.80;;;;;;;18.29;47.08;98522.94;104922;1259;62112;-43
2023/10/10 07:22:47;;;;;;;4.30;2.70;;;;;;;18.36;47.00;98517.50;105227;1259;66097;-44
2023/10/10 07:25:31;;;;;;;5.10;3.00;;;;;;;18.40;46.91;98520.19;105370;1259;73408;-43
2023/10/10 07:28:01;;;;;;;3.70;2.60;;;;;;;18.42;46.91;98523.21;105356;1263;62076;-41
2023/10/10 07:30:35;;;;;;;3.80;2.60;;;;;;;18.43;46.83;98527.61;105089;1264;62628;-42
2023/10/10 07:33:03;;;;;;;4.90;2.70;;;;;;;18.44;46.78;98524.39;105284;1259;74123;-43
2023/10/10 07:35:36;;;;;;;3.20;2.70;;;;;;;18.44;46.72;98525.95;105444;1263;66376;-42
2023/10/10 07:38:04;;;;;;;5.30;2.80;;;;;;;18.46;46.69;98531.06;105008;1260;73846;-42
2023/10/10 07:40:37;;;;;;;3.70;2.50;;;;;;;18.46;46.56;98531.32;105567;1262;62265;-42
2023/10/10 07:43:07;;;;;;;3.90;2.90;;;;;;;18.46;46.50;98530.08;108767;1263;59955;-42
2023/10/10 07:45:43;;;;;;;4.20;2.70;;;;;;;18.47;46.56;98529.85;108822;1259;75363;-42
2023/10/10 07:50:48;;;;;;;3.50;2.70;;;;;;;18.47;46.47;98529.49;105083;1259;71859;-42
2023/10/10 07:53:17;;;;;;;4.60;2.80;;;;;;;18.48;46.42;98530.98;104719;1264;62077;-43
2023/10/10 07:58:49;;;;;;;4.00;2.50;;;;;;;18.48;46.29;98533.86;104854;1264;75401;-42
2023/10/10 08:01:20;;;;;;;3.30;2.40;;;;;;;18.48;46.27;98534.16;105008;1259;66432;-42
2023/10/10 08:03:48;;;;;;;2.50;2.30;;;;;;;18.47;46.26;98535.61;104941;1259;73373;-43
2023/10/10 08:06:22;;;;;;;3.10;2.50;;;;;;;18.47;46.20;98536.70;104814;1264;62027;-41
2023/10/10 08:11:57;;;;;;;;;;;;;;;18.48;46.50;98535.80;106496;1267;75424;-42
2023/10/10 08:14:31;;;;;;;4.50;2.90;;;;;;;18.51;46.99;98533.43;104519;1270;65863;-42
2023/10/10 08:17:04;;;;;;;5.60;3.00;;;;;;;18.54;47.27;98536.60;104537;1259;72729;-42
2023/10/10 08:19:33;;;;;;;3.50;2.70;;;;;;;18.57;47.34;98536.87;106104;1260;62170;-40
2023/10/10 08:22:12;;;;;;;5.80;3.40;;;;;;;18.59;47.37;98537.85;108094;1259;62067;-42
2023/10/10 08:24:43;;;;;;;4.70;2.70;;;;;;;18.62;47.28;98539.59;108771;1259;74239;-42
2023/10/10 08:27:11;;;;;;;4.10;2.90;;;;;;;18.63;47.30;98540.11;107449;1263;66685;-39
2023/10/10 08:29:40;;;;;;;3.50;2.90;;;;;;;18.65;47.45;98546.02;105030;1259;73581;-38
2023/10/10 08:32:08;;;;;;;5.30;3.20;;;;;;;18.67;47.69;98550.19;104793;1262;61994;-40
2023/10/10 08:34:38;;;;;;;11.90;3.10;;;;;;;18.68;48.05;98549.12;108767;1259;60016;-41
2023/10/10 08:37:08;;;;;;;5.30;3.00;;;;;;;18.69;48.16;98552.69;108761;1259;75399;-42
2023/10/10 08:39:36;;;;;;;5.70;3.10;;;;;;;18.71;48.17;98551.05;108753;1260;66504;-41
2023/10/10 08:42:14;;;;;;;8.10;3.20;;;;;;;18.72;47.89;98550.79;108726;1260;73755;-41
2023/10/10 08:49:23;;;;;;;4.90;3.10;;;;;;;18.75;47.76;98560.56;104656;1265;62249;-40
2023/10/10 08:51:52;;;;;;;6.40;3.10;;;;;;;18.74;47.82;98571.01;104822;1261;75460;-38
2023/10/10 08:54:20;;;;;;;6.40;3.20;;;;;;;18.75;47.91;98566.85;107176;1262;66016;-41
2023/10/10 08:57:00;;;;;;;9.60;3.50;;;;;;;18.76;47.96;98565.57;104996;1262;74013;-40
2023/10/10 08:59:29;;;;;;;6.80;3.20;;;;;;;18.77;48.03;98564.98;105083;1264;62113;-39
2023/10/10 09:02:23;;;;;;;7.40;3.10;;;;;;;18.78;48.13;98566.80;105014;1260;62075;-38
2023/10/10 09:04:51;;;;;;;6.20;3.10;;;;;;;18.78;48.07;98569.60;104760;1264;204075;-39
2023/10/10 09:07:27;;;;;;;5.50;3.00;;;;;;;18.79;48.07;98574.14;105059;1262;67103;-41
2023/10/10 09:10:04;;;;;;;6.90;3.20;;;;;;;18.80;48.18;98579.38;104985;1262;72810;-41
2023/10/10 09:12:52;;;;;;;9.60;3.40;;;;;;;18.81;48.23;98582.52;106726;1262;62160;-41
2023/10/10 09:15:20;;;;;;;9.60;3.30;;;;;;;18.83;48.30;98585.59;107056;1262;62038;-41
2023/10/10 09:17:48;;;;;;;5.10;3.00;;;;;;;18.84;48.36;98584.80;105639;1264;76386;-39
2023/10/10 09:20:29;;;;;;;5.90;3.20;;;;;;;18.86;48.35;98585.34;105108;1260;66288;-38
2023/10/10 09:23:04;;;;;;;4.60;3.00;;;;;;;18.87;48.30;98589.02;105405;1262;73349;-38
2023/10/10 09:25:42;;;;;;;4.30;2.90;;;;;;;18.88;48.35;98584.04;104899;1264;62220;-42
2023/10/10 09:28:16;;;;;;;4.40;3.00;;;;;;;18.88;48.27;98584.52;105070;1262;62106;-39
2023/10/10 09:30:50;;;;;;;5.60;3.40;;;;;;;18.89;48.24;98592.30;104857;1262;75303;-40
2023/10/10 09:33:27;;;;;;;5.90;2.90;;;;;;;18.90;48.22;98589.67;105008;1264;65166;-38
2023/10/10 09:36:08;;;;;;;5.10;2.70;;;;;;;18.90;48.37;98595.75;104847;1265;73060;-40
2023/10/10 09:38:53;;;;;;;3.80;2.60;;;;;;;18.91;48.33;98589.71;105006;1265;62072;-40
2023/10/10 09:41:36;;;;;;;4.70;2.80;;;;;;;18.92;48.44;98599.09;105031;1261;61959;-41
2023/10/10 09:55:34;;;;;;;4.20;2.80;;;;;;;18.97;48.25;98593.63;104894;1262;62159;-40
2023/10/10 10:09:18;;;;;;;4.40;2.70;;;;;;;18.99;47.99;98590.83;104996;1259;62082;-40
2023/10/10 10:12:10;;;;;;;8.10;2.90;;;;;;;19.00;47.94;98586.20;105062;1262;76298;-39
2023/10/10 10:14:37;;;;;;;3.90;2.70;;;;;;;19.00;47.97;98581.70;105025;1262;66452;-40
2023/10/10 10:17:12;;;;;;;5.50;2.80;;;;;;;19.00;48.02;98581.41;105129;1262;72462;-40
2023/10/10 10:19:45;;;;;;;7.50;2.70;;;;;;;19.00;47.91;98575.81;104949;1262;62194;-42
2023/10/10 10:22:18;;;;;;;4.20;2.70;;;;;;;19.00;47.96;98572.02;105218;1259;62075;-40
2023/10/10 10:24:46;;;;;;;6.20;2.70;;;;;;;19.00;47.99;98570.32;104992;1259;77516;-41
2023/10/10 10:27:24;;;;;;;3.50;2.30;;;;;;;19.00;48.09;98564.34;104965;1259;65930;-41
2023/10/10 10:30:46;;;;;;;5.20;2.30;;;;;;;19.00;48.09;98567.22;105074;1259;72532;-40
2023/10/10 10:32:59;;;;;;;3.30;2.40;;;;;;;19.01;48.11;98564.21;105189;1262;62063;-43
2023/10/10 10:36:14;;;;;;;5.70;2.60;;;;;;;19.02;48.18;98567.17;104993;1265;62141;-43
2023/10/10 10:38:45;;;;;;;4.50;2.60;;;;;;;19.02;48.22;98562.96;105081;1261;75438;-42
2023/10/10 10:41:17;;;;;;;4.00;2.40;;;;;;;19.03;48.21;98564.60;104993;1262;65016;-44
2023/10/10 10:43:49;;;;;;;3.20;2.40;;;;;;;19.04;48.27;98564.95;105031;1262;73573;-43
2023/10/10 10:46:27;;;;;;;4.70;2.50;;;;;;;19.05;48.25;98565.83;105228;1260;62040;-42
2023/10/10 10:49:02;;;;;;;6.00;2.70;;;;;;;19.07;48.28;98565.89;105165;1262;63004;-41
2023/10/10 10:51:41;;;;;;;3.70;2.50;;;;;;;19.07;48.28;98562.45;105063;1261;75501;-41
2023/10/10 10:54:10;;;;;;;3.80;2.50;;;;;;;19.09;48.23;98558.14;105273;1262;64785;-40
2023/10/10 10:56:38;;;;;;;6.90;2.80;;;;;;;19.09;48.16;98557.63;105133;1259;73242;-40
2023/10/10 10:59:12;;;;;;;3.70;2.50;;;;;;;19.10;48.14;98558.13;105106;1260;62068;-40
2023/10/10 11:01:57;;;;;;;5.60;2.50;;;;;;;19.11;48.41;98561.57;105159;1260;62457;-41
2023/10/10 11:04:42;;;;;;;3.50;2.60;;;;;;;19.12;48.49;98564.78;105239;1259;75456;-41
2023/10/10 11:07:25;;;;;;;4.10;2.40;;;;;;;19.14;48.60;98562.04;105252;1262;67394;-41
2023/10/10 11:10:06;;;;;;;3.20;2.30;;;;;;;19.15;48.54;98564.10;105270;1260;73390;-41
2023/10/10 11:12:36;;;;;;;3.20;2.40;;;;;;;19.17;48.54;98558.73;105035;1259;62168;-41
2023/10/10 11:15:07;;;;;;;4.20;2.90;;;;;;;19.19;48.56;98555.92;105098;1260;62133;-42
2023/10/10 11:17:38;;;;;;;3.60;2.60;;;;;;;19.21;48.64;98557.23;105692;1261;75191;-41
2023/10/10 11:20:29;;;;;;;7.90;2.80;;;;;;;19.22;48.69;98561.27;105127;1262;66263;-40
2023/10/10 11:23:11;;;;;;;4.60;2.40;;;;;;;19.25;48.81;98562.58;105509;1262;72432;-40
2023/10/10 11:25:46;;;;;;;3.90;2.70;;;;;;;19.27;48.75;98561.41;105044;1260;62015;-40
2023/10/10 11:28:59;;;;;;;3.60;2.50;;;;;;;19.28;48.82;98554.17;105159;1260;62184;-43
2023/10/10 11:31:07;;;;;;;3.20;2.50;;;;;;;19.31;48.86;98549.40;104974;1262;76434;-40
2023/10/10 11:33:48;;;;;;;4.30;2.70;;;;;;;19.33;48.82;98551.63;105222;1262;65791;-40
2023/10/10 11:36:38;;;;;;;2.90;2.60;;;;;;;19.35;48.91;98550.92;104938;1263;72706;-43
2023/10/10 11:39:31;;;;;;;4.00;2.40;;;;;;;19.38;48.73;98552.23;105256;1263;62536;-40
2023/10/10 11:42:04;;;;;;;3.60;2.50;;;;;;;19.39;48.65;98549.89;104874;1260;61987;-39
2023/10/10 11:44:33;;;;;;;4.30;2.70;;;;;;;19.41;48.52;98549.77;104933;1265;75499;-39
2023/10/10 11:47:07;;;;;;;3.00;2.30;;;;;;;19.41;48.33;98549.84;107267;1259;65264;-39
2023/10/10 11:49:35;;;;;;;3.80;2.60;;;;;;;19.41;48.12;98556.14;105259;1260;73339;-39
2023/10/10 11:52:03;;;;;;;5.60;3.00;;;;;;;19.41;47.97;98554.66;104961;1259;62218;-46
2023/10/10 11:54:31;;;;;;;6.00;2.90;;;;;;;19.42;47.98;98559.13;105030;1265;62119;-39
2023/10/10 11:57:00;;;;;;;9.60;2.50;;;;;;;19.43;47.90;98557.24;107866;1259;75447;-39
2023/10/10 11:59:28;;;;;;;8.90;2.90;;;;;;;19.44;47.94;98551.53;105138;1262;67019;-38
2023/10/10 12:02:07;;;;;;;6.20;3.00;;;;;;;19.46;47.96;98550.27;104765;1260;73435;-39
2023/10/10 12:04:37;;;;;;;5.10;2.80;;;;;;;19.48;47.85;98550.25;105063;1260;62165;-41
2023/10/10 12:07:05;;;;;;;4.20;2.60;;;;;;;19.49;47.80;98550.31;105147;1260;62194;-40
2023/10/10 12:09:34;;;;;;;4.70;2.90;;;;;;;19.51;47.84;98549.98;105151;1274;76190;-41
2023/10/10 12:12:04;;;;;;;4.50;2.40;;;;;;;19.53;47.92;98551.99;105103;1263;64485;-40
2023/10/10 12:14:32;;;;;;;3.80;2.80;;;;;;;19.54;47.95;98555.38;105076;1260;72633;-41
2023/10/10 12:17:05;;;;;;;3.90;2.20;;;;;;;19.55;47.96;98557.50;105042;1262;62067;-40
2023/10/10 12:19:36;;;;;;;4.10;2.40;;;;;;;19.56;48.01;98554.06;108726;1259;59708;-40
2023/10/10 12:22:08;;;;;;;2.60;2.30;;;;;;;19.59;48.01;98555.95;105106;1259;76275;-39
2023/10/10 12:24:39;;;;;;;4.70;2.60;;;;;;;19.62;47.98;98555.03;105151;1263;66523;-40
2023/10/10 12:27:08;;;;;;;3.30;2.60;;;;;;;19.63;48.06;98554.15;105164;1262;72781;-40
2023/10/10 12:29:40;;;;;;;3.90;2.30;;;;;;;19.66;48.01;98555.40;105094;1262;62531;-41
2023/10/10 12:32:18;;;;;;;4.60;2.50;;;;;;;19.69;48.14;98552.17;104944;1264;60588;-40
2023/10/10 12:34:47;;;;;;;5.30;2.70;;;;;;;19.73;48.06;98553.09;105182;1260;76769;-40
2023/10/10 12:37:18;;;;;;;11.30;2.70;;;;;;;19.75;48.04;98553.16;105204;1264;66231;-41
2023/10/10 12:39:46;;;;;;;3.80;2.30;;;;;;;19.77;48.17;98547.80;106350;1259;72696;-40
2023/10/10 12:42:14;;;;;;;6.00;2.70;;;;;;;19.78;47.99;98554.74;105071;1265;62130;-39
2023/10/10 12:44:47;;;;;;;4.80;2.60;;;;;;;19.78;47.99;98553.04;105270;1260;62098;-40
2023/10/10 12:47:17;;;;;;;4.40;2.50;;;;;;;19.79;48.05;98551.81;105046;1262;74178;-40
2023/10/10 12:49:45;;;;;;;5.50;2.70;;;;;;;19.79;48.05;98557.80;105201;1262;64962;-40
2023/10/10 12:52:16;;;;;;;4.40;2.60;;;;;;;19.78;48.08;98557.78;105198;1264;72505;-39
2023/10/10 12:54:47;;;;;;;4.60;2.70;;;;;;;19.77;48.17;98554.16;105144;1262;62124;-41
2023/10/10 12:57:16;;;;;;;3.60;2.30;;;;;;;19.76;48.07;98555.36;105031;1263;62155;-42
2023/10/10 12:59:46;;;;;;;3.00;2.50;;;;;;;19.76;48.08;98549.85;105355;1260;75277;-39
2023/10/10 13:02:15;;;;;;;6.70;2.30;;;;;;;19.75;48.20;98548.83;105167;1273;67175;-38
2023/10/10 13:04:46;;;;;;;6.60;2.30;;;;;;;19.75;48.20;98542.61;105166;1264;72637;-40
2023/10/10 13:07:16;;;;;;;3.80;2.10;;;;;;;19.76;48.29;98545.17;107871;1259;62051;-40
2023/10/10 13:09:46;;;;;;;6.00;2.40;;;;;;;19.75;48.28;98547.73;105238;1260;62097;-41
2023/10/10 13:12:26;;;;;;;6.00;2.90;;;;;;;19.74;48.27;98541.73;105114;1262;73126;-41
2023/10/10 13:15:16;;;;;;;3.30;2.40;;;;;;;19.74;48.26;98539.71;104994;1259;67145;-40
2023/10/10 13:17:53;;;;;;;5.60;2.50;;;;;;;19.74;48.19;98539.07;105839;1262;72604;-39
2023/10/10 13:20:21;;;;;;;4.90;2.70;;;;;;;19.73;48.20;98543.56;105215;1259;62115;-39
2023/10/10 13:22:52;;;;;;;3.60;2.30;;;;;;;19.74;48.09;98548.55;105757;1259;62081;-40
2023/10/10 13:25:21;;;;;;;7.40;2.90;;;;;;;19.73;47.97;98552.17;105203;1262;77163;-39
2023/10/10 13:27:52;;;;;;;3.50;2.70;;;;;;;19.72;47.82;98549.95;106034;1262;66692;-41
2023/10/10 13:30:20;;;;;;;5.00;2.80;;;;;;;19.70;47.69;98548.75;105356;1262;72690;-40
2023/10/10 13:32:48;;;;;;;4.40;2.70;;;;;;;19.69;47.62;98551.78;105239;1261;62126;-40
2023/10/10 13:35:19;;;;;;;4.50;2.30;;;;;;;19.67;47.51;98555.45;105186;1259;62143;-41
2023/10/10 13:37:47;;;;;;;13.10;3.20;;;;;;;19.66;47.50;98552.75;105268;1262;76343;-39
2023/10/10 13:40:22;;;;;;;4.60;2.50;;;;;;;19.63;47.49;98555.75;105118;1264;66210;-40
2023/10/10 13:42:50;;;;;;;7.00;2.70;;;;;;;19.61;47.39;98558.72;105603;1260;73373;-42
2023/10/10 13:45:22;;;;;;;5.40;2.40;;;;;;;19.58;47.40;98559.16;105043;1262;62076;-41
2023/10/10 13:47:50;;;;;;;4.50;2.30;;;;;;;19.56;47.34;98556.98;105626;1262;62061;-40
2023/10/10 13:50:40;;;;;;;4.80;2.40;;;;;;;19.54;47.21;98555.76;105116;1263;75493;-40
2023/10/10 13:53:13;;;;;;;4.00;2.50;;;;;;;19.51;46.98;98552.94;105050;1261;66105;-40
2023/10/10 13:55:45;;;;;;;3.50;2.20;;;;;;;19.48;47.04;98554.47;105046;1263;72494;-40
2023/10/10 13:58:13;;;;;;;3.80;2.50;;;;;;;19.46;47.20;98560.45;105105;1261;62083;-39
2023/10/10 14:00:42;;;;;;;6.00;2.20;;;;;;;19.45;47.20;98558.64;105160;1261;62076;-40
2023/10/10 14:03:14;;;;;;;4.50;2.50;;;;;;;19.44;47.07;98558.66;105025;1264;74290;-40
2023/10/10 14:06:00;;;;;;;3.80;2.50;;;;;;;19.42;46.88;98556.67;105266;1263;66433;-42
2023/10/10 14:08:30;;;;;;;4.30;2.30;;;;;;;19.41;46.70;98556.30;105242;1262;72649;-39
2023/10/10 14:10:59;;;;;;;5.70;2.70;;;;;;;19.38;46.59;98555.72;105437;1261;61997;-40
2023/10/10 14:13:28;;;;;;;2.60;2.10;;;;;;;19.35;46.45;98556.95;105336;1262;62181;-39
2023/10/10 14:15:56;;;;;;;6.70;2.40;;;;;;;19.33;46.37;98559.41;105332;1262;75303;-39
2023/10/10 14:18:29;;;;;;;4.70;2.20;;;;;;;19.31;46.31;98559.65;105394;1262;66120;-38
2023/10/10 14:21:07;;;;;;;4.40;2.50;;;;;;;19.29;46.38;98553.37;105120;1262;72987;-39
2023/10/10 14:23:35;;;;;;;4.50;2.40;;;;;;;19.28;46.19;98551.05;105347;1262;62068;-39
2023/10/10 14:26:14;;;;;;;4.70;2.40;;;;;;;19.25;46.22;98550.67;105293;1273;62189;-39
2023/10/10 14:28:48;;;;;;;4.80;2.40;;;;;;;19.24;46.20;98552.47;105185;1266;75471;-39
2023/10/10 14:31:21;;;;;;;;;;;;;;;19.21;46.32;98555.17;105228;1264;66679;-38
2023/10/10 14:33:49;;;;;;;4.30;2.20;;;;;;;19.19;46.29;98555.09;105141;1260;72743;-39
2023/10/10 14:36:17;;;;;;;4.00;2.30;;;;;;;19.17;46.38;98556.86;105256;1261;62117;-39
2023/10/10 14:38:45;;;;;;;3.10;2.10;;;;;;;19.15;46.35;98559.28;105286;1260;62125;-39